Coupar Angus, United Kingdom
Current Conditions -  °F | °C
As of 12:20 PM on Sunday 25 Jan 2015 (Local Time) from EGPN Reporting Station
Scattered Clouds Scattered Clouds  
Wind Chill: 37°   Ceiling: Unl
Heat Index: 45°   Visibility: 6mi
Dew Point: 43°   Wind: 20mph
Humidity: 93%   Direction: 230°SW
Pressure: 30.03"   Gusts: NA
Location:  56.55°N, 3.27°W
Report Text: EGPN 251220Z 23017KT 9999 FEW015 SCT019 07/06 Q1017
Loading
Personal Weather Stations






























Interactive Weather Map New forecast layout! Learn more

10-Day Weather Forecast

Advertisements
Track Severe Weather on mobile